ARCT2: Red River, ARthur City

Data processed at Wed Jun 19 2019 23:50


All information presented herein is the property of the government of the United States of America and may be revised or deleted at any time without prior notice.
Dissemination of this information without the expressed written consent of the Public Affairs Office, Tulsa District U.S. Army Corps of Engineers is strictly prohibited.
These data are gathered electronically and, as presented, have not undergone any form of quality control. These data are not guaranteed to be valid or correct.
Go to home page.
Go to station list.
Go to home page.

Upstream stations:

Downstream station:
Previous Day
Next Day
Current Day
    
SHEF ID:       ARCT2     Red River at Arthur City, TX
STATION TYPE:  
Regulating: Stage =    27.00, Flow =    85822

               PRECIP     STAGE  STAGE(2)  RIV-FLOW  BAT-LOAD
                   in        ft        ft       cfs      volt
              Ccp-Rev   Ccp-Rev   Ccp-Rev   Ccp-Rev   Ccp-Rev
(US/Central)
06/19 00:00      0.00     17.13     17.02     32811     12.65
06/19 01:00      0.00     17.28     17.16     33409     12.65
06/19 02:00      0.00     17.39     17.26     33851     12.65
06/19 03:00      0.00     17.49     17.38     34255     12.65
06/19 04:00      0.20     17.58     17.45     34621     12.57
06/19 05:00      0.20     17.67     17.57     34988     12.57
06/19 06:00      0.01     17.73     17.66     35234     12.57
06/19 07:00      0.00     17.86     17.70     35771     12.57
06/19 08:00      0.00     17.99     17.88     36311     12.73
06/19 09:00      0.00     18.11     18.02     36813     13.05
06/19 10:00      0.00     18.35     18.24     37829     13.37
06/19 11:00      0.00     18.63     18.50     39035     14.00
06/19 12:00      0.00     18.85     18.76     39995     13.68
06/19 13:00      0.00     19.03     18.94     40790     13.60
06/19 14:00      0.00     19.28     19.15     41907     13.44
06/19 15:00      0.00     19.50     19.37     42901     13.44
06/19 16:00      0.00     19.67     19.51     43678     13.44
06/19 17:00      0.00     19.77     19.64     44138     13.29
06/19 18:00      0.02     19.86     19.75     44554     12.81
06/19 19:00      0.08     20.04     19.93     45393     12.73
06/19 20:00      0.19     20.18     20.05     46050     12.81
06/19 21:00      0.00     20.22     20.18     46239     13.05
06/19 22:00      0.00     20.36     20.21     46902     12.65
06/19 23:00      0.00     20.43     20.30     47235     12.65